<?xml version="1.0" encoding="UTF-8" standalone="no" ?>
<gpx xmlns="http://www.topografix.com/GPX/1/1" xmlns:xsi="http://www.w3.org/2001/XMLSchema-instance" xsi:schemaLocation="http://www.topografix.com/GPX/1/1 http://www.topografix.com/GPX/1/1/gpx.xsd" version="1.1" creator="VisuGPX - https://www.visugpx.com">
  <metadata>
    <name>Le Gerbier P2</name>
    <desc><![CDATA[Une pluie battante, un repas au sec, Après-midi serein]]></desc>
  </metadata>
  <trk>
    <name><![CDATA[mont gerbier de jonc]]></name>
    <trkseg>
      <trkpt lat="44.8292" lon="4.22721">
        <ele>1448.3</ele>
        <time>2014-05-21T09:37:33Z</time>
      </trkpt>
      <trkpt lat="44.82913" lon="4.22749">
        <ele>1448.8</ele>
        <time>2014-05-21T09:40:26Z</time>
      </trkpt>
      <trkpt lat="44.82901" lon="4.22776">
        <ele>1449.4</ele>
        <time>2014-05-21T09:41:21Z</time>
      </trkpt>
      <trkpt lat="44.82885" lon="4.22807">
        <ele>1448.9</ele>
        <time>2014-05-21T09:41:45Z</time>
      </trkpt>
      <trkpt lat="44.82874" lon="4.2284">
        <ele>1448.5</ele>
        <time>2014-05-21T09:42:10Z</time>
      </trkpt>
      <trkpt lat="44.82853" lon="4.22862">
        <ele>1447.7</ele>
        <time>2014-05-21T09:42:33Z</time>
      </trkpt>
      <trkpt lat="44.82837" lon="4.22885">
        <ele>1447.1</ele>
        <time>2014-05-21T09:42:56Z</time>
      </trkpt>
      <trkpt lat="44.82841" lon="4.22918">
        <ele>1448.3</ele>
        <time>2014-05-21T09:43:48Z</time>
      </trkpt>
      <trkpt lat="44.82827" lon="4.22949">
        <ele>1448.6</ele>
        <time>2014-05-21T09:44:13Z</time>
      </trkpt>
      <trkpt lat="44.82812" lon="4.2298">
        <ele>1448.8</ele>
        <time>2014-05-21T09:44:36Z</time>
      </trkpt>
      <trkpt lat="44.82797" lon="4.23011">
        <ele>1449.9</ele>
        <time>2014-05-21T09:44:58Z</time>
      </trkpt>
      <trkpt lat="44.82778" lon="4.23037">
        <ele>1450.3</ele>
        <time>2014-05-21T09:45:19Z</time>
      </trkpt>
      <trkpt lat="44.82762" lon="4.23067">
        <ele>1451</ele>
        <time>2014-05-21T09:45:43Z</time>
      </trkpt>
      <trkpt lat="44.82745" lon="4.23097">
        <ele>1451.6</ele>
        <time>2014-05-21T09:46:06Z</time>
      </trkpt>
      <trkpt lat="44.82725" lon="4.23122">
        <ele>1451.7</ele>
        <time>2014-05-21T09:46:28Z</time>
      </trkpt>
      <trkpt lat="44.82703" lon="4.23146">
        <ele>1450.9</ele>
        <time>2014-05-21T09:46:51Z</time>
      </trkpt>
      <trkpt lat="44.82664" lon="4.23158">
        <ele>1447.4</ele>
        <time>2014-05-21T09:53:14Z</time>
      </trkpt>
      <trkpt lat="44.82562" lon="4.23263">
        <ele>1439.4</ele>
        <time>2014-05-21T09:58:26Z</time>
      </trkpt>
      <trkpt lat="44.82567" lon="4.23333">
        <ele>1443.1</ele>
        <time>2014-05-21T09:59:28Z</time>
      </trkpt>
      <trkpt lat="44.82571" lon="4.23376">
        <ele>1445.8</ele>
        <time>2014-05-21T09:59:55Z</time>
      </trkpt>
      <trkpt lat="44.82569" lon="4.23418">
        <ele>1447</ele>
        <time>2014-05-21T10:00:24Z</time>
      </trkpt>
      <trkpt lat="44.82573" lon="4.23457">
        <ele>1448.5</ele>
        <time>2014-05-21T10:00:52Z</time>
      </trkpt>
      <trkpt lat="44.82576" lon="4.23508">
        <ele>1447.7</ele>
        <time>2014-05-21T10:05:09Z</time>
      </trkpt>
      <trkpt lat="44.82567" lon="4.23551">
        <ele>1444.5</ele>
        <time>2014-05-21T10:05:42Z</time>
      </trkpt>
      <trkpt lat="44.82553" lon="4.23644">
        <ele>1434.9</ele>
        <time>2014-05-21T10:09:21Z</time>
      </trkpt>
      <trkpt lat="44.82549" lon="4.23687">
        <ele>1429.6</ele>
        <time>2014-05-21T10:09:50Z</time>
      </trkpt>
      <trkpt lat="44.82536" lon="4.23725">
        <ele>1424.2</ele>
        <time>2014-05-21T10:10:15Z</time>
      </trkpt>
      <trkpt lat="44.8252" lon="4.23759">
        <ele>1417.1</ele>
        <time>2014-05-21T10:10:41Z</time>
      </trkpt>
      <trkpt lat="44.825" lon="4.2379">
        <ele>1410.9</ele>
        <time>2014-05-21T10:11:08Z</time>
      </trkpt>
      <trkpt lat="44.82481" lon="4.23848">
        <ele>1399.5</ele>
        <time>2014-05-21T10:12:09Z</time>
      </trkpt>
      <trkpt lat="44.82462" lon="4.23888">
        <ele>1392.4</ele>
        <time>2014-05-21T10:12:38Z</time>
      </trkpt>
      <trkpt lat="44.82434" lon="4.23929">
        <ele>1386.3</ele>
        <time>2014-05-21T10:13:50Z</time>
      </trkpt>
      <trkpt lat="44.82432" lon="4.23971">
        <ele>1381.3</ele>
        <time>2014-05-21T10:14:37Z</time>
      </trkpt>
      <trkpt lat="44.82428" lon="4.24009">
        <ele>1374.3</ele>
        <time>2014-05-21T10:16:14Z</time>
      </trkpt>
      <trkpt lat="44.82518" lon="4.2406">
        <ele>1374.8</ele>
        <time>2014-05-21T10:21:14Z</time>
      </trkpt>
      <trkpt lat="44.82554" lon="4.24095">
        <ele>1374.6</ele>
        <time>2014-05-21T10:21:54Z</time>
      </trkpt>
      <trkpt lat="44.82587" lon="4.24136">
        <ele>1372.5</ele>
        <time>2014-05-21T10:22:34Z</time>
      </trkpt>
      <trkpt lat="44.82626" lon="4.24163">
        <ele>1374.2</ele>
        <time>2014-05-21T10:31:04Z</time>
      </trkpt>
      <trkpt lat="44.82644" lon="4.24195">
        <ele>1370</ele>
        <time>2014-05-21T10:31:33Z</time>
      </trkpt>
      <trkpt lat="44.82695" lon="4.24205">
        <ele>1370</ele>
        <time>2014-05-21T10:32:25Z</time>
      </trkpt>
      <trkpt lat="44.82735" lon="4.24177">
        <ele>1369.9</ele>
        <time>2014-05-21T10:33:00Z</time>
      </trkpt>
      <trkpt lat="44.82761" lon="4.24148">
        <ele>1366.6</ele>
        <time>2014-05-21T10:33:28Z</time>
      </trkpt>
      <trkpt lat="44.82782" lon="4.24112">
        <ele>1366.4</ele>
        <time>2014-05-21T10:33:56Z</time>
      </trkpt>
      <trkpt lat="44.82833" lon="4.24126">
        <ele>1357.9</ele>
        <time>2014-05-21T10:34:58Z</time>
      </trkpt>
      <trkpt lat="44.82874" lon="4.24131">
        <ele>1348.7</ele>
        <time>2014-05-21T10:35:37Z</time>
      </trkpt>
      <trkpt lat="44.82917" lon="4.2415">
        <ele>1341</ele>
        <time>2014-05-21T10:36:20Z</time>
      </trkpt>
      <trkpt lat="44.8294" lon="4.24165">
        <ele>1338.6</ele>
        <time>2014-05-21T10:36:46Z</time>
      </trkpt>
      <trkpt lat="44.82958" lon="4.24197">
        <ele>1332.6</ele>
        <time>2014-05-21T10:37:14Z</time>
      </trkpt>
      <trkpt lat="44.83034" lon="4.24222">
        <ele>1321.2</ele>
        <time>2014-05-21T10:45:43Z</time>
      </trkpt>
      <trkpt lat="44.83077" lon="4.24225">
        <ele>1316.4</ele>
        <time>2014-05-21T10:46:17Z</time>
      </trkpt>
      <trkpt lat="44.83107" lon="4.24239">
        <ele>1311.7</ele>
        <time>2014-05-21T10:46:44Z</time>
      </trkpt>
      <trkpt lat="44.83223" lon="4.2427">
        <ele>1286.8</ele>
        <time>2014-05-21T10:49:11Z</time>
      </trkpt>
      <trkpt lat="44.833" lon="4.24257">
        <ele>1283.5</ele>
        <time>2014-05-21T10:55:34Z</time>
      </trkpt>
      <trkpt lat="44.83408" lon="4.24146">
        <ele>1308.7</ele>
        <time>2014-05-21T10:59:46Z</time>
      </trkpt>
      <trkpt lat="44.83413" lon="4.24115">
        <ele>1310.8</ele>
        <time>2014-05-21T11:00:40Z</time>
      </trkpt>
      <trkpt lat="44.83416" lon="4.24078">
        <ele>1311.7</ele>
        <time>2014-05-21T11:16:33Z</time>
      </trkpt>
      <trkpt lat="44.83426" lon="4.24038">
        <ele>1311.1</ele>
        <time>2014-05-21T11:17:15Z</time>
      </trkpt>
      <trkpt lat="44.8343" lon="4.24003">
        <ele>1310.5</ele>
        <time>2014-05-21T11:17:54Z</time>
      </trkpt>
      <trkpt lat="44.83395" lon="4.23925">
        <ele>1313.4</ele>
        <time>2014-05-21T11:20:06Z</time>
      </trkpt>
      <trkpt lat="44.83353" lon="4.23833">
        <ele>1308.9</ele>
        <time>2014-05-21T11:21:29Z</time>
      </trkpt>
      <trkpt lat="44.83351" lon="4.23667">
        <ele>1332.4</ele>
        <time>2014-05-21T11:24:48Z</time>
      </trkpt>
      <trkpt lat="44.83445" lon="4.23447">
        <ele>1338.1</ele>
        <time>2014-05-21T11:33:39Z</time>
      </trkpt>
      <trkpt lat="44.83467" lon="4.23433">
        <ele>1341.2</ele>
        <time>2014-05-21T11:35:56Z</time>
      </trkpt>
      <trkpt lat="44.83508" lon="4.23427">
        <ele>1342.7</ele>
        <time>2014-05-21T11:39:02Z</time>
      </trkpt>
      <trkpt lat="44.83534" lon="4.23434">
        <ele>1346.6</ele>
        <time>2014-05-21T11:39:29Z</time>
      </trkpt>
      <trkpt lat="44.83558" lon="4.23453">
        <ele>1347.6</ele>
        <time>2014-05-21T11:39:54Z</time>
      </trkpt>
      <trkpt lat="44.83583" lon="4.23473">
        <ele>1348.8</ele>
        <time>2014-05-21T11:40:19Z</time>
      </trkpt>
      <trkpt lat="44.8361" lon="4.23484">
        <ele>1352.3</ele>
        <time>2014-05-21T11:40:49Z</time>
      </trkpt>
      <trkpt lat="44.83638" lon="4.23483">
        <ele>1354.7</ele>
        <time>2014-05-21T11:41:19Z</time>
      </trkpt>
      <trkpt lat="44.83664" lon="4.23493">
        <ele>1353.6</ele>
        <time>2014-05-21T11:41:48Z</time>
      </trkpt>
      <trkpt lat="44.8368" lon="4.23523">
        <ele>1350.3</ele>
        <time>2014-05-21T11:42:10Z</time>
      </trkpt>
      <trkpt lat="44.83705" lon="4.23529">
        <ele>1351.6</ele>
        <time>2014-05-21T11:42:32Z</time>
      </trkpt>
      <trkpt lat="44.8373" lon="4.23513">
        <ele>1351.3</ele>
        <time>2014-05-21T11:42:55Z</time>
      </trkpt>
      <trkpt lat="44.83746" lon="4.23481">
        <ele>1348.4</ele>
        <time>2014-05-21T11:43:23Z</time>
      </trkpt>
      <trkpt lat="44.83766" lon="4.2345">
        <ele>1344.3</ele>
        <time>2014-05-21T11:43:48Z</time>
      </trkpt>
      <trkpt lat="44.83783" lon="4.23416">
        <ele>1343.7</ele>
        <time>2014-05-21T11:44:12Z</time>
      </trkpt>
      <trkpt lat="44.83806" lon="4.23387">
        <ele>1342.4</ele>
        <time>2014-05-21T11:44:36Z</time>
      </trkpt>
      <trkpt lat="44.83842" lon="4.23348">
        <ele>1345.8</ele>
        <time>2014-05-21T11:45:22Z</time>
      </trkpt>
      <trkpt lat="44.83906" lon="4.233">
        <ele>1352.8</ele>
        <time>2014-05-21T11:46:21Z</time>
      </trkpt>
      <trkpt lat="44.83922" lon="4.23257">
        <ele>1364.9</ele>
        <time>2014-05-21T11:46:53Z</time>
      </trkpt>
      <trkpt lat="44.83944" lon="4.2322">
        <ele>1362.1</ele>
        <time>2014-05-21T11:47:20Z</time>
      </trkpt>
      <trkpt lat="44.84005" lon="4.23222">
        <ele>1356.9</ele>
        <time>2014-05-21T11:48:01Z</time>
      </trkpt>
      <trkpt lat="44.84055" lon="4.23213">
        <ele>1355.3</ele>
        <time>2014-05-21T11:48:49Z</time>
      </trkpt>
      <trkpt lat="44.84094" lon="4.23156">
        <ele>1356.8</ele>
        <time>2014-05-21T11:49:29Z</time>
      </trkpt>
      <trkpt lat="44.84133" lon="4.23086">
        <ele>1357.4</ele>
        <time>2014-05-21T11:50:14Z</time>
      </trkpt>
      <trkpt lat="44.84174" lon="4.23017">
        <ele>1364.8</ele>
        <time>2014-05-21T11:51:11Z</time>
      </trkpt>
      <trkpt lat="44.84268" lon="4.22938">
        <ele>1374.1</ele>
        <time>2014-05-21T11:58:15Z</time>
      </trkpt>
      <trkpt lat="44.84326" lon="4.22926">
        <ele>1380.6</ele>
        <time>2014-05-21T11:59:16Z</time>
      </trkpt>
      <trkpt lat="44.84363" lon="4.22934">
        <ele>1386.3</ele>
        <time>2014-05-21T11:59:56Z</time>
      </trkpt>
      <trkpt lat="44.84379" lon="4.22914">
        <ele>1391.7</ele>
        <time>2014-05-21T12:00:46Z</time>
      </trkpt>
      <trkpt lat="44.84402" lon="4.22892">
        <ele>1396.8</ele>
        <time>2014-05-21T12:01:24Z</time>
      </trkpt>
      <trkpt lat="44.84413" lon="4.22861">
        <ele>1398.5</ele>
        <time>2014-05-21T12:03:06Z</time>
      </trkpt>
      <trkpt lat="44.84405" lon="4.22824">
        <ele>1397.9</ele>
        <time>2014-05-21T12:03:37Z</time>
      </trkpt>
      <trkpt lat="44.8441" lon="4.22793">
        <ele>1397.5</ele>
        <time>2014-05-21T12:04:23Z</time>
      </trkpt>
      <trkpt lat="44.84423" lon="4.2276">
        <ele>1394.4</ele>
        <time>2014-05-21T12:04:55Z</time>
      </trkpt>
      <trkpt lat="44.84426" lon="4.22722">
        <ele>1390</ele>
        <time>2014-05-21T12:05:51Z</time>
      </trkpt>
      <trkpt lat="44.84389" lon="4.22695">
        <ele>1391.2</ele>
        <time>2014-05-21T12:07:01Z</time>
      </trkpt>
      <trkpt lat="44.84307" lon="4.22691">
        <ele>1397.3</ele>
        <time>2014-05-21T12:08:44Z</time>
      </trkpt>
      <trkpt lat="44.8427" lon="4.22667">
        <ele>1402.7</ele>
        <time>2014-05-21T12:09:21Z</time>
      </trkpt>
      <trkpt lat="44.84245" lon="4.22636">
        <ele>1404.2</ele>
        <time>2014-05-21T12:09:56Z</time>
      </trkpt>
      <trkpt lat="44.8421" lon="4.22595">
        <ele>1407.9</ele>
        <time>2014-05-21T12:10:46Z</time>
      </trkpt>
      <trkpt lat="44.84184" lon="4.22573">
        <ele>1410.4</ele>
        <time>2014-05-21T12:11:13Z</time>
      </trkpt>
      <trkpt lat="44.84171" lon="4.22533">
        <ele>1412.7</ele>
        <time>2014-05-21T12:11:43Z</time>
      </trkpt>
      <trkpt lat="44.84156" lon="4.225">
        <ele>1414.5</ele>
        <time>2014-05-21T12:12:13Z</time>
      </trkpt>
      <trkpt lat="44.84142" lon="4.22465">
        <ele>1415.3</ele>
        <time>2014-05-21T12:12:41Z</time>
      </trkpt>
      <trkpt lat="44.84125" lon="4.22437">
        <ele>1415.9</ele>
        <time>2014-05-21T12:13:10Z</time>
      </trkpt>
      <trkpt lat="44.84108" lon="4.22405">
        <ele>1416</ele>
        <time>2014-05-21T12:15:00Z</time>
      </trkpt>
      <trkpt lat="44.84103" lon="4.2237">
        <ele>1415.7</ele>
        <time>2014-05-21T12:15:24Z</time>
      </trkpt>
      <trkpt lat="44.84109" lon="4.22335">
        <ele>1415.9</ele>
        <time>2014-05-21T12:15:47Z</time>
      </trkpt>
      <trkpt lat="44.84114" lon="4.22296">
        <ele>1415.7</ele>
        <time>2014-05-21T12:16:09Z</time>
      </trkpt>
      <trkpt lat="44.84119" lon="4.22258">
        <ele>1415.3</ele>
        <time>2014-05-21T12:16:32Z</time>
      </trkpt>
      <trkpt lat="44.84124" lon="4.22221">
        <ele>1415.4</ele>
        <time>2014-05-21T12:16:54Z</time>
      </trkpt>
      <trkpt lat="44.8413" lon="4.22181">
        <ele>1415.2</ele>
        <time>2014-05-21T12:17:16Z</time>
      </trkpt>
      <trkpt lat="44.84137" lon="4.22144">
        <ele>1415</ele>
        <time>2014-05-21T12:17:37Z</time>
      </trkpt>
      <trkpt lat="44.84145" lon="4.22107">
        <ele>1415.5</ele>
        <time>2014-05-21T12:17:56Z</time>
      </trkpt>
      <trkpt lat="44.84152" lon="4.2207">
        <ele>1415</ele>
        <time>2014-05-21T12:18:17Z</time>
      </trkpt>
      <trkpt lat="44.84159" lon="4.22031">
        <ele>1414.1</ele>
        <time>2014-05-21T12:18:37Z</time>
      </trkpt>
      <trkpt lat="44.84163" lon="4.21995">
        <ele>1414.5</ele>
        <time>2014-05-21T12:18:59Z</time>
      </trkpt>
      <trkpt lat="44.84165" lon="4.21955">
        <ele>1414.2</ele>
        <time>2014-05-21T12:19:23Z</time>
      </trkpt>
      <trkpt lat="44.84168" lon="4.21913">
        <ele>1414.1</ele>
        <time>2014-05-21T12:19:46Z</time>
      </trkpt>
      <trkpt lat="44.84156" lon="4.21875">
        <ele>1411.5</ele>
        <time>2014-05-21T12:20:22Z</time>
      </trkpt>
      <trkpt lat="44.84133" lon="4.21841">
        <ele>1406.8</ele>
        <time>2014-05-21T12:21:18Z</time>
      </trkpt>
      <trkpt lat="44.84145" lon="4.21852">
        <ele>1409</ele>
        <time>2014-05-21T12:21:34Z</time>
      </trkpt>
      <trkpt lat="44.84145" lon="4.21852">
        <ele>1409</ele>
        <time>2014-05-21T12:25:28Z</time>
      </trkpt>
      <trkpt lat="44.84145" lon="4.21852">
        <ele>1409</ele>
        <time>2014-05-21T12:26:50Z</time>
      </trkpt>
      <trkpt lat="44.84142" lon="4.21855">
        <ele>1408.5</ele>
        <time>2014-05-21T12:27:07Z</time>
      </trkpt>
      <trkpt lat="44.84141" lon="4.2185">
        <ele>1408.3</ele>
        <time>2014-05-21T12:39:17Z</time>
      </trkpt>
      <trkpt lat="44.84112" lon="4.21862">
        <ele>1403.2</ele>
        <time>2014-05-21T12:39:30Z</time>
      </trkpt>
      <trkpt lat="44.84086" lon="4.21874">
        <ele>1399</ele>
        <time>2014-05-21T12:39:41Z</time>
      </trkpt>
      <trkpt lat="44.84061" lon="4.21887">
        <ele>1395.6</ele>
        <time>2014-05-21T12:39:52Z</time>
      </trkpt>
      <trkpt lat="44.84117" lon="4.2186">
        <ele>1404</ele>
        <time>2014-05-21T12:39:58Z</time>
      </trkpt>
      <trkpt lat="44.84145" lon="4.21877">
        <ele>1409.2</ele>
        <time>2014-05-21T13:03:55Z</time>
      </trkpt>
      <trkpt lat="44.84146" lon="4.21856">
        <ele>1409.2</ele>
        <time>2014-05-21T13:05:34Z</time>
      </trkpt>
      <trkpt lat="44.84134" lon="4.21859">
        <ele>1407</ele>
        <time>2014-05-21T13:08:19Z</time>
      </trkpt>
      <trkpt lat="44.84152" lon="4.21849">
        <ele>1410</ele>
        <time>2014-05-21T13:11:57Z</time>
      </trkpt>
      <trkpt lat="44.84175" lon="4.21859">
        <ele>1414</ele>
        <time>2014-05-21T13:12:11Z</time>
      </trkpt>
      <trkpt lat="44.84166" lon="4.21838">
        <ele>1411.2</ele>
        <time>2014-05-21T13:20:34Z</time>
      </trkpt>
      <trkpt lat="44.84142" lon="4.21838">
        <ele>1408.4</ele>
        <time>2014-05-21T13:23:04Z</time>
      </trkpt>
      <trkpt lat="44.84149" lon="4.21868">
        <ele>1409.9</ele>
        <time>2014-05-21T13:45:03Z</time>
      </trkpt>
      <trkpt lat="44.84165" lon="4.21882">
        <ele>1413.4</ele>
        <time>2014-05-21T13:47:39Z</time>
      </trkpt>
      <trkpt lat="44.84177" lon="4.21851">
        <ele>1413.7</ele>
        <time>2014-05-21T13:48:12Z</time>
      </trkpt>
      <trkpt lat="44.84185" lon="4.21814">
        <ele>1413.2</ele>
        <time>2014-05-21T13:48:35Z</time>
      </trkpt>
      <trkpt lat="44.84199" lon="4.2178">
        <ele>1414.5</ele>
        <time>2014-05-21T13:48:58Z</time>
      </trkpt>
      <trkpt lat="44.84213" lon="4.21746">
        <ele>1414.3</ele>
        <time>2014-05-21T13:49:22Z</time>
      </trkpt>
      <trkpt lat="44.8423" lon="4.21716">
        <ele>1415.1</ele>
        <time>2014-05-21T13:49:45Z</time>
      </trkpt>
      <trkpt lat="44.84248" lon="4.21686">
        <ele>1414.5</ele>
        <time>2014-05-21T13:50:07Z</time>
      </trkpt>
      <trkpt lat="44.84268" lon="4.21659">
        <ele>1413.5</ele>
        <time>2014-05-21T13:50:28Z</time>
      </trkpt>
      <trkpt lat="44.84292" lon="4.2164">
        <ele>1413.2</ele>
        <time>2014-05-21T13:50:49Z</time>
      </trkpt>
      <trkpt lat="44.84317" lon="4.21628">
        <ele>1413.2</ele>
        <time>2014-05-21T13:51:10Z</time>
      </trkpt>
      <trkpt lat="44.84319" lon="4.21658">
        <ele>1416.8</ele>
        <time>2014-05-21T13:53:18Z</time>
      </trkpt>
      <trkpt lat="44.84308" lon="4.21693">
        <ele>1419.9</ele>
        <time>2014-05-21T13:53:50Z</time>
      </trkpt>
      <trkpt lat="44.84293" lon="4.21725">
        <ele>1421.4</ele>
        <time>2014-05-21T13:54:15Z</time>
      </trkpt>
      <trkpt lat="44.8428" lon="4.21757">
        <ele>1423</ele>
        <time>2014-05-21T13:54:40Z</time>
      </trkpt>
      <trkpt lat="44.84269" lon="4.21791">
        <ele>1424.9</ele>
        <time>2014-05-21T13:55:06Z</time>
      </trkpt>
      <trkpt lat="44.84263" lon="4.21829">
        <ele>1427.1</ele>
        <time>2014-05-21T13:55:32Z</time>
      </trkpt>
      <trkpt lat="44.8425" lon="4.21862">
        <ele>1427.1</ele>
        <time>2014-05-21T13:55:57Z</time>
      </trkpt>
      <trkpt lat="44.84246" lon="4.21902">
        <ele>1428.7</ele>
        <time>2014-05-21T13:56:28Z</time>
      </trkpt>
      <trkpt lat="44.84305" lon="4.21991">
        <ele>1479.5</ele>
        <time>2014-05-21T14:02:39Z</time>
      </trkpt>
      <trkpt lat="44.84386" lon="4.22037">
        <ele>1543.8</ele>
        <time>2014-05-21T14:15:18Z</time>
      </trkpt>
      <trkpt lat="44.84401" lon="4.22022">
        <ele>1542.3</ele>
        <time>2014-05-21T14:17:35Z</time>
      </trkpt>
      <trkpt lat="44.84396" lon="4.2201">
        <ele>1543.6</ele>
        <time>2014-05-21T14:28:00Z</time>
      </trkpt>
      <trkpt lat="44.844" lon="4.21989">
        <ele>1537.1</ele>
        <time>2014-05-21T14:29:37Z</time>
      </trkpt>
      <trkpt lat="44.84381" lon="4.21969">
        <ele>1530.3</ele>
        <time>2014-05-21T14:32:29Z</time>
      </trkpt>
      <trkpt lat="44.84373" lon="4.21947">
        <ele>1517.7</ele>
        <time>2014-05-21T14:34:51Z</time>
      </trkpt>
      <trkpt lat="44.84362" lon="4.21921">
        <ele>1501.4</ele>
        <time>2014-05-21T14:37:03Z</time>
      </trkpt>
      <trkpt lat="44.84354" lon="4.21894">
        <ele>1483.3</ele>
        <time>2014-05-21T14:41:11Z</time>
      </trkpt>
      <trkpt lat="44.8432" lon="4.2189">
        <ele>1461.7</ele>
        <time>2014-05-21T14:47:40Z</time>
      </trkpt>
      <trkpt lat="44.84314" lon="4.21871">
        <ele>1450.8</ele>
        <time>2014-05-21T14:49:56Z</time>
      </trkpt>
      <trkpt lat="44.84314" lon="4.21845">
        <ele>1440.5</ele>
        <time>2014-05-21T14:51:22Z</time>
      </trkpt>
      <trkpt lat="44.84294" lon="4.21817">
        <ele>1429.7</ele>
        <time>2014-05-21T14:56:11Z</time>
      </trkpt>
      <trkpt lat="44.8431" lon="4.21792">
        <ele>1428.5</ele>
        <time>2014-05-21T14:56:42Z</time>
      </trkpt>
      <trkpt lat="44.84324" lon="4.21764">
        <ele>1427</ele>
        <time>2014-05-21T14:57:13Z</time>
      </trkpt>
      <trkpt lat="44.8433" lon="4.21732">
        <ele>1424.5</ele>
        <time>2014-05-21T14:57:45Z</time>
      </trkpt>
      <trkpt lat="44.84326" lon="4.21697">
        <ele>1420.3</ele>
        <time>2014-05-21T14:58:15Z</time>
      </trkpt>
      <trkpt lat="44.84328" lon="4.21659">
        <ele>1417</ele>
        <time>2014-05-21T14:58:44Z</time>
      </trkpt>
      <trkpt lat="44.84323" lon="4.21628">
        <ele>1413.6</ele>
        <time>2014-05-21T15:02:48Z</time>
      </trkpt>
      <trkpt lat="44.84298" lon="4.21637">
        <ele>1412.9</ele>
        <time>2014-05-21T15:03:15Z</time>
      </trkpt>
      <trkpt lat="44.84274" lon="4.2166">
        <ele>1413.7</ele>
        <time>2014-05-21T15:03:41Z</time>
      </trkpt>
      <trkpt lat="44.84252" lon="4.21684">
        <ele>1414.7</ele>
        <time>2014-05-21T15:04:05Z</time>
      </trkpt>
      <trkpt lat="44.84235" lon="4.21713">
        <ele>1415.3</ele>
        <time>2014-05-21T15:04:28Z</time>
      </trkpt>
      <trkpt lat="44.84219" lon="4.21745">
        <ele>1414.8</ele>
        <time>2014-05-21T15:04:51Z</time>
      </trkpt>
      <trkpt lat="44.84206" lon="4.21779">
        <ele>1415.2</ele>
        <time>2014-05-21T15:05:12Z</time>
      </trkpt>
      <trkpt lat="44.84192" lon="4.21821">
        <ele>1414.2</ele>
        <time>2014-05-21T15:05:35Z</time>
      </trkpt>
      <trkpt lat="44.84175" lon="4.21855">
        <ele>1413.7</ele>
        <time>2014-05-21T15:05:57Z</time>
      </trkpt>
      <trkpt lat="44.84178" lon="4.21889">
        <ele>1415.3</ele>
        <time>2014-05-21T15:08:57Z</time>
      </trkpt>
      <trkpt lat="44.84169" lon="4.21926">
        <ele>1414.4</ele>
        <time>2014-05-21T15:09:30Z</time>
      </trkpt>
      <trkpt lat="44.84163" lon="4.21964">
        <ele>1414</ele>
        <time>2014-05-21T15:09:56Z</time>
      </trkpt>
      <trkpt lat="44.84157" lon="4.22">
        <ele>1413.6</ele>
        <time>2014-05-21T15:10:20Z</time>
      </trkpt>
      <trkpt lat="44.84149" lon="4.22039">
        <ele>1413.2</ele>
        <time>2014-05-21T15:10:43Z</time>
      </trkpt>
      <trkpt lat="44.84141" lon="4.22075">
        <ele>1413.9</ele>
        <time>2014-05-21T15:11:05Z</time>
      </trkpt>
      <trkpt lat="44.84134" lon="4.22112">
        <ele>1414.3</ele>
        <time>2014-05-21T15:11:27Z</time>
      </trkpt>
      <trkpt lat="44.84126" lon="4.22148">
        <ele>1413.9</ele>
        <time>2014-05-21T15:11:49Z</time>
      </trkpt>
      <trkpt lat="44.84119" lon="4.22185">
        <ele>1414.3</ele>
        <time>2014-05-21T15:12:11Z</time>
      </trkpt>
      <trkpt lat="44.84112" lon="4.22221">
        <ele>1415</ele>
        <time>2014-05-21T15:12:34Z</time>
      </trkpt>
      <trkpt lat="44.84109" lon="4.22259">
        <ele>1414.8</ele>
        <time>2014-05-21T15:12:57Z</time>
      </trkpt>
      <trkpt lat="44.84103" lon="4.22296">
        <ele>1415.1</ele>
        <time>2014-05-21T15:13:21Z</time>
      </trkpt>
      <trkpt lat="44.84098" lon="4.22333">
        <ele>1415.1</ele>
        <time>2014-05-21T15:13:45Z</time>
      </trkpt>
      <trkpt lat="44.84093" lon="4.22372">
        <ele>1415.3</ele>
        <time>2014-05-21T15:14:09Z</time>
      </trkpt>
      <trkpt lat="44.84087" lon="4.22408">
        <ele>1415.7</ele>
        <time>2014-05-21T15:14:58Z</time>
      </trkpt>
      <trkpt lat="44.84073" lon="4.22443">
        <ele>1416.5</ele>
        <time>2014-05-21T15:15:25Z</time>
      </trkpt>
      <trkpt lat="44.84056" lon="4.22474">
        <ele>1417.2</ele>
        <time>2014-05-21T15:15:49Z</time>
      </trkpt>
      <trkpt lat="44.84039" lon="4.22506">
        <ele>1418</ele>
        <time>2014-05-21T15:16:12Z</time>
      </trkpt>
      <trkpt lat="44.84023" lon="4.22538">
        <ele>1417.6</ele>
        <time>2014-05-21T15:16:35Z</time>
      </trkpt>
      <trkpt lat="44.84006" lon="4.22569">
        <ele>1416.5</ele>
        <time>2014-05-21T15:16:57Z</time>
      </trkpt>
      <trkpt lat="44.8399" lon="4.22601">
        <ele>1415.6</ele>
        <time>2014-05-21T15:17:22Z</time>
      </trkpt>
      <trkpt lat="44.83973" lon="4.22632">
        <ele>1414.8</ele>
        <time>2014-05-21T15:17:45Z</time>
      </trkpt>
      <trkpt lat="44.83952" lon="4.22658">
        <ele>1414.2</ele>
        <time>2014-05-21T15:18:07Z</time>
      </trkpt>
      <trkpt lat="44.83929" lon="4.22672">
        <ele>1413.8</ele>
        <time>2014-05-21T15:18:28Z</time>
      </trkpt>
      <trkpt lat="44.83902" lon="4.22677">
        <ele>1413.2</ele>
        <time>2014-05-21T15:18:51Z</time>
      </trkpt>
      <trkpt lat="44.83873" lon="4.22681">
        <ele>1411.6</ele>
        <time>2014-05-21T15:19:12Z</time>
      </trkpt>
      <trkpt lat="44.83845" lon="4.22684">
        <ele>1410.4</ele>
        <time>2014-05-21T15:19:35Z</time>
      </trkpt>
      <trkpt lat="44.83822" lon="4.22672">
        <ele>1409</ele>
        <time>2014-05-21T15:20:04Z</time>
      </trkpt>
      <trkpt lat="44.83823" lon="4.22635">
        <ele>1405.3</ele>
        <time>2014-05-21T15:20:32Z</time>
      </trkpt>
      <trkpt lat="44.83829" lon="4.22597">
        <ele>1402.4</ele>
        <time>2014-05-21T15:23:15Z</time>
      </trkpt>
      <trkpt lat="44.83845" lon="4.22568">
        <ele>1399.7</ele>
        <time>2014-05-21T15:23:49Z</time>
      </trkpt>
      <trkpt lat="44.83853" lon="4.22532">
        <ele>1397.1</ele>
        <time>2014-05-21T15:24:14Z</time>
      </trkpt>
      <trkpt lat="44.83867" lon="4.22499">
        <ele>1394.1</ele>
        <time>2014-05-21T15:24:39Z</time>
      </trkpt>
      <trkpt lat="44.83871" lon="4.22466">
        <ele>1391.1</ele>
        <time>2014-05-21T15:25:07Z</time>
      </trkpt>
      <trkpt lat="44.83881" lon="4.22433">
        <ele>1389.3</ele>
        <time>2014-05-21T15:25:35Z</time>
      </trkpt>
      <trkpt lat="44.83876" lon="4.22407">
        <ele>1388.1</ele>
        <time>2014-05-21T15:26:22Z</time>
      </trkpt>
      <trkpt lat="44.83885" lon="4.22377">
        <ele>1385</ele>
        <time>2014-05-21T15:26:46Z</time>
      </trkpt>
      <trkpt lat="44.83892" lon="4.22347">
        <ele>1382.9</ele>
        <time>2014-05-21T15:27:13Z</time>
      </trkpt>
      <trkpt lat="44.83877" lon="4.22321">
        <ele>1382.6</ele>
        <time>2014-05-21T15:27:38Z</time>
      </trkpt>
      <trkpt lat="44.83864" lon="4.22287">
        <ele>1382.4</ele>
        <time>2014-05-21T15:28:08Z</time>
      </trkpt>
      <trkpt lat="44.83855" lon="4.22252">
        <ele>1378.9</ele>
        <time>2014-05-21T15:28:38Z</time>
      </trkpt>
      <trkpt lat="44.83852" lon="4.22214">
        <ele>1377.6</ele>
        <time>2014-05-21T15:29:03Z</time>
      </trkpt>
      <trkpt lat="44.83828" lon="4.22199">
        <ele>1378.7</ele>
        <time>2014-05-21T15:29:29Z</time>
      </trkpt>
      <trkpt lat="44.83804" lon="4.22188">
        <ele>1375.2</ele>
        <time>2014-05-21T15:29:57Z</time>
      </trkpt>
      <trkpt lat="44.83786" lon="4.22163">
        <ele>1372.4</ele>
        <time>2014-05-21T15:30:26Z</time>
      </trkpt>
      <trkpt lat="44.83774" lon="4.22137">
        <ele>1369.6</ele>
        <time>2014-05-21T15:30:56Z</time>
      </trkpt>
      <trkpt lat="44.83757" lon="4.22034">
        <ele>1368.6</ele>
        <time>2014-05-21T15:36:28Z</time>
      </trkpt>
      <trkpt lat="44.83752" lon="4.21964">
        <ele>1363.4</ele>
        <time>2014-05-21T15:37:51Z</time>
      </trkpt>
      <trkpt lat="44.83714" lon="4.21911">
        <ele>1361.2</ele>
        <time>2014-05-21T15:38:46Z</time>
      </trkpt>
      <trkpt lat="44.83717" lon="4.21842">
        <ele>1355.7</ele>
        <time>2014-05-21T15:39:47Z</time>
      </trkpt>
      <trkpt lat="44.83699" lon="4.21842">
        <ele>1357.3</ele>
        <time>2014-05-21T15:46:21Z</time>
      </trkpt>
      <trkpt lat="44.83678" lon="4.21871">
        <ele>1358.3</ele>
        <time>2014-05-21T15:46:48Z</time>
      </trkpt>
      <trkpt lat="44.8366" lon="4.21902">
        <ele>1359.8</ele>
        <time>2014-05-21T15:47:14Z</time>
      </trkpt>
      <trkpt lat="44.83643" lon="4.21947">
        <ele>1364.3</ele>
        <time>2014-05-21T15:48:32Z</time>
      </trkpt>
      <trkpt lat="44.83631" lon="4.21984">
        <ele>1367</ele>
        <time>2014-05-21T15:49:00Z</time>
      </trkpt>
      <trkpt lat="44.83631" lon="4.22025">
        <ele>1370.7</ele>
        <time>2014-05-21T15:49:27Z</time>
      </trkpt>
      <trkpt lat="44.83628" lon="4.22066">
        <ele>1373</ele>
        <time>2014-05-21T15:49:54Z</time>
      </trkpt>
      <trkpt lat="44.83614" lon="4.22091">
        <ele>1374.5</ele>
        <time>2014-05-21T15:50:16Z</time>
      </trkpt>
      <trkpt lat="44.83594" lon="4.22115">
        <ele>1378.1</ele>
        <time>2014-05-21T15:50:42Z</time>
      </trkpt>
      <trkpt lat="44.83571" lon="4.22131">
        <ele>1380.8</ele>
        <time>2014-05-21T15:51:03Z</time>
      </trkpt>
      <trkpt lat="44.83515" lon="4.22084">
        <ele>1388.1</ele>
        <time>2014-05-21T15:52:25Z</time>
      </trkpt>
      <trkpt lat="44.83495" lon="4.22039">
        <ele>1392.4</ele>
        <time>2014-05-21T15:52:53Z</time>
      </trkpt>
      <trkpt lat="44.83484" lon="4.22053">
        <ele>1396.1</ele>
        <time>2014-05-21T15:53:21Z</time>
      </trkpt>
      <trkpt lat="44.83486" lon="4.22098">
        <ele>1398.3</ele>
        <time>2014-05-21T15:53:54Z</time>
      </trkpt>
      <trkpt lat="44.83493" lon="4.22143">
        <ele>1398</ele>
        <time>2014-05-21T15:54:24Z</time>
      </trkpt>
      <trkpt lat="44.83498" lon="4.2219">
        <ele>1399.1</ele>
        <time>2014-05-21T15:54:55Z</time>
      </trkpt>
      <trkpt lat="44.83484" lon="4.22174">
        <ele>1401.2</ele>
        <time>2014-05-21T15:55:25Z</time>
      </trkpt>
      <trkpt lat="44.83464" lon="4.22146">
        <ele>1405</ele>
        <time>2014-05-21T15:55:55Z</time>
      </trkpt>
      <trkpt lat="44.83457" lon="4.22185">
        <ele>1406.7</ele>
        <time>2014-05-21T15:56:24Z</time>
      </trkpt>
      <trkpt lat="44.8345" lon="4.22221">
        <ele>1407.4</ele>
        <time>2014-05-21T15:56:49Z</time>
      </trkpt>
      <trkpt lat="44.83443" lon="4.22188">
        <ele>1409.1</ele>
        <time>2014-05-21T15:57:21Z</time>
      </trkpt>
      <trkpt lat="44.83419" lon="4.22201">
        <ele>1410.8</ele>
        <time>2014-05-21T15:57:55Z</time>
      </trkpt>
      <trkpt lat="44.83397" lon="4.22231">
        <ele>1412.4</ele>
        <time>2014-05-21T15:58:21Z</time>
      </trkpt>
      <trkpt lat="44.83373" lon="4.22244">
        <ele>1414.6</ele>
        <time>2014-05-21T15:58:45Z</time>
      </trkpt>
      <trkpt lat="44.83349" lon="4.22238">
        <ele>1416.6</ele>
        <time>2014-05-21T15:59:14Z</time>
      </trkpt>
      <trkpt lat="44.83326" lon="4.22257">
        <ele>1418.9</ele>
        <time>2014-05-21T16:03:30Z</time>
      </trkpt>
      <trkpt lat="44.83294" lon="4.2227">
        <ele>1421.7</ele>
        <time>2014-05-21T16:04:08Z</time>
      </trkpt>
      <trkpt lat="44.83261" lon="4.22281">
        <ele>1424.2</ele>
        <time>2014-05-21T16:04:41Z</time>
      </trkpt>
      <trkpt lat="44.83222" lon="4.22271">
        <ele>1429.2</ele>
        <time>2014-05-21T16:05:13Z</time>
      </trkpt>
      <trkpt lat="44.83197" lon="4.22245">
        <ele>1432.5</ele>
        <time>2014-05-21T16:05:41Z</time>
      </trkpt>
      <trkpt lat="44.83169" lon="4.2222">
        <ele>1434.5</ele>
        <time>2014-05-21T16:06:14Z</time>
      </trkpt>
      <trkpt lat="44.8314" lon="4.22207">
        <ele>1435.4</ele>
        <time>2014-05-21T16:06:56Z</time>
      </trkpt>
      <trkpt lat="44.83101" lon="4.22202">
        <ele>1438.2</ele>
        <time>2014-05-21T16:07:32Z</time>
      </trkpt>
      <trkpt lat="44.83028" lon="4.22208">
        <ele>1444.5</ele>
        <time>2014-05-21T16:09:05Z</time>
      </trkpt>
      <trkpt lat="44.82986" lon="4.22195">
        <ele>1449</ele>
        <time>2014-05-21T16:11:08Z</time>
      </trkpt>
      <trkpt lat="44.82969" lon="4.2216">
        <ele>1450.9</ele>
        <time>2014-05-21T16:11:32Z</time>
      </trkpt>
      <trkpt lat="44.82946" lon="4.22136">
        <ele>1451.8</ele>
        <time>2014-05-21T16:11:56Z</time>
      </trkpt>
      <trkpt lat="44.82928" lon="4.22107">
        <ele>1452.1</ele>
        <time>2014-05-21T16:12:20Z</time>
      </trkpt>
      <trkpt lat="44.82909" lon="4.22081">
        <ele>1452.3</ele>
        <time>2014-05-21T16:12:45Z</time>
      </trkpt>
      <trkpt lat="44.82886" lon="4.22062">
        <ele>1452.9</ele>
        <time>2014-05-21T16:13:08Z</time>
      </trkpt>
      <trkpt lat="44.82861" lon="4.22051">
        <ele>1451.9</ele>
        <time>2014-05-21T16:13:35Z</time>
      </trkpt>
      <trkpt lat="44.82835" lon="4.22038">
        <ele>1451.4</ele>
        <time>2014-05-21T16:14:02Z</time>
      </trkpt>
      <trkpt lat="44.82788" lon="4.2204">
        <ele>1450.4</ele>
        <time>2014-05-21T16:15:35Z</time>
      </trkpt>
      <trkpt lat="44.82733" lon="4.22065">
        <ele>1450.6</ele>
        <time>2014-05-21T16:16:57Z</time>
      </trkpt>
      <trkpt lat="44.82683" lon="4.22122">
        <ele>1450</ele>
        <time>2014-05-21T16:21:40Z</time>
      </trkpt>
      <trkpt lat="44.82688" lon="4.2216">
        <ele>1449.8</ele>
        <time>2014-05-21T16:22:05Z</time>
      </trkpt>
      <trkpt lat="44.82692" lon="4.22201">
        <ele>1449.7</ele>
        <time>2014-05-21T16:22:30Z</time>
      </trkpt>
      <trkpt lat="44.82701" lon="4.2224">
        <ele>1449.2</ele>
        <time>2014-05-21T16:22:54Z</time>
      </trkpt>
      <trkpt lat="44.82708" lon="4.22278">
        <ele>1448.5</ele>
        <time>2014-05-21T16:23:17Z</time>
      </trkpt>
      <trkpt lat="44.82716" lon="4.22317">
        <ele>1447.5</ele>
        <time>2014-05-21T16:23:40Z</time>
      </trkpt>
      <trkpt lat="44.82731" lon="4.22349">
        <ele>1446.4</ele>
        <time>2014-05-21T16:24:02Z</time>
      </trkpt>
      <trkpt lat="44.82747" lon="4.22381">
        <ele>1445.3</ele>
        <time>2014-05-21T16:24:26Z</time>
      </trkpt>
      <trkpt lat="44.82764" lon="4.22414">
        <ele>1445.6</ele>
        <time>2014-05-21T16:24:51Z</time>
      </trkpt>
      <trkpt lat="44.8278" lon="4.22445">
        <ele>1445.2</ele>
        <time>2014-05-21T16:25:14Z</time>
      </trkpt>
      <trkpt lat="44.82797" lon="4.22477">
        <ele>1446.3</ele>
        <time>2014-05-21T16:25:37Z</time>
      </trkpt>
      <trkpt lat="44.82814" lon="4.22507">
        <ele>1446.5</ele>
        <time>2014-05-21T16:25:59Z</time>
      </trkpt>
      <trkpt lat="44.82832" lon="4.22536">
        <ele>1446.6</ele>
        <time>2014-05-21T16:26:22Z</time>
      </trkpt>
      <trkpt lat="44.82848" lon="4.22567">
        <ele>1446.9</ele>
        <time>2014-05-21T16:26:46Z</time>
      </trkpt>
      <trkpt lat="44.82864" lon="4.22598">
        <ele>1447.1</ele>
        <time>2014-05-21T16:27:10Z</time>
      </trkpt>
      <trkpt lat="44.8288" lon="4.22628">
        <ele>1447.5</ele>
        <time>2014-05-21T16:27:33Z</time>
      </trkpt>
      <trkpt lat="44.82896" lon="4.22661">
        <ele>1448.2</ele>
        <time>2014-05-21T16:27:58Z</time>
      </trkpt>
      <trkpt lat="44.82911" lon="4.22693">
        <ele>1448.8</ele>
        <time>2014-05-21T16:28:29Z</time>
      </trkpt>
      <trkpt lat="44.82912" lon="4.22694">
        <ele>1448.8</ele>
        <time>2014-05-21T16:28:30Z</time>
      </trkpt>
    </trkseg>
  </trk>
</gpx>